sensor_id;sensor_type;location;lat;lon;timestamp;P1;durP1;ratioP1;P2;durP2;ratioP2
3847;SDS011;1939;48.720;9.166;2023-02-03T00:00:01;0.97;;;0.77;;
3847;SDS011;1939;48.720;9.166;2023-02-03T00:02:26;2.80;;;0.90;;
3847;SDS011;1939;48.720;9.166;2023-02-03T00:04:51;1.00;;;0.83;;
3847;SDS011;1939;48.720;9.166;2023-02-03T00:07:17;1.00;;;0.90;;
3847;SDS011;1939;48.720;9.166;2023-02-03T00:09:42;1.20;;;0.90;;
3847;SDS011;1939;48.720;9.166;2023-02-03T00:12:08;1.00;;;0.77;;
3847;SDS011;1939;48.720;9.166;2023-02-03T00:14:33;1.60;;;0.73;;
3847;SDS011;1939;48.720;9.166;2023-02-03T00:16:58;5.80;;;0.93;;
3847;SDS011;1939;48.720;9.166;2023-02-03T00:19:23;2.40;;;0.70;;
3847;SDS011;1939;48.720;9.166;2023-02-03T00:21:49;2.17;;;0.67;;
3847;SDS011;1939;48.720;9.166;2023-02-03T00:24:14;0.73;;;0.60;;
3847;SDS011;1939;48.720;9.166;2023-02-03T00:26:40;0.80;;;0.80;;
3847;SDS011;1939;48.720;9.166;2023-02-03T00:29:05;1.10;;;0.60;;
3847;SDS011;1939;48.720;9.166;2023-02-03T00:31:30;3.80;;;0.90;;
3847;SDS011;1939;48.720;9.166;2023-02-03T00:33:56;1.80;;;0.53;;
3847;SDS011;1939;48.720;9.166;2023-02-03T00:36:21;1.60;;;1.20;;
3847;SDS011;1939;48.720;9.166;2023-02-03T00:38:47;0.73;;;0.40;;
3847;SDS011;1939;48.720;9.166;2023-02-03T00:41:14;1.10;;;0.60;;
3847;SDS011;1939;48.720;9.166;2023-02-03T00:43:39;2.40;;;0.60;;
3847;SDS011;1939;48.720;9.166;2023-02-03T00:46:04;1.20;;;0.70;;
3847;SDS011;1939;48.720;9.166;2023-02-03T00:48:29;8.70;;;1.23;;
3847;SDS011;1939;48.720;9.166;2023-02-03T00:50:55;0.60;;;0.50;;
3847;SDS011;1939;48.720;9.166;2023-02-03T00:53:20;0.60;;;0.50;;
3847;SDS011;1939;48.720;9.166;2023-02-03T00:55:45;1.50;;;0.70;;
3847;SDS011;1939;48.720;9.166;2023-02-03T00:58:10;1.43;;;0.50;;
3847;SDS011;1939;48.720;9.166;2023-02-03T01:00:35;1.67;;;0.80;;
3847;SDS011;1939;48.720;9.166;2023-02-03T01:03:01;0.60;;;0.30;;
3847;SDS011;1939;48.720;9.166;2023-02-03T01:05:26;0.80;;;0.60;;
3847;SDS011;1939;48.720;9.166;2023-02-03T01:07:51;1.00;;;0.57;;
3847;SDS011;1939;48.720;9.166;2023-02-03T01:10:16;3.20;;;0.43;;
3847;SDS011;1939;48.720;9.166;2023-02-03T01:12:42;0.90;;;0.60;;
3847;SDS011;1939;48.720;9.166;2023-02-03T01:15:07;1.00;;;0.60;;
3847;SDS011;1939;48.720;9.166;2023-02-03T01:17:32;0.90;;;0.60;;
3847;SDS011;1939;48.720;9.166;2023-02-03T01:19:57;1.57;;;0.83;;
3847;SDS011;1939;48.720;9.166;2023-02-03T01:22:23;0.67;;;0.50;;
3847;SDS011;1939;48.720;9.166;2023-02-03T01:24:48;2.00;;;0.70;;
3847;SDS011;1939;48.720;9.166;2023-02-03T01:27:13;1.97;;;0.83;;
3847;SDS011;1939;48.720;9.166;2023-02-03T01:29:38;1.50;;;0.70;;
3847;SDS011;1939;48.720;9.166;2023-02-03T01:32:04;1.20;;;0.77;;
3847;SDS011;1939;48.720;9.166;2023-02-03T01:34:29;1.30;;;0.83;;
3847;SDS011;1939;48.720;9.166;2023-02-03T01:36:54;1.20;;;0.87;;
3847;SDS011;1939;48.720;9.166;2023-02-03T01:39:19;0.80;;;0.70;;
3847;SDS011;1939;48.720;9.166;2023-02-03T01:41:45;2.13;;;0.87;;
3847;SDS011;1939;48.720;9.166;2023-02-03T01:46:55;1.40;;;1.07;;
3847;SDS011;1939;48.720;9.166;2023-02-03T01:49:23;1.70;;;1.20;;
3847;SDS011;1939;48.720;9.166;2023-02-03T01:51:49;2.00;;;0.90;;
3847;SDS011;1939;48.720;9.166;2023-02-03T01:54:16;4.10;;;1.03;;
3847;SDS011;1939;48.720;9.166;2023-02-03T01:56:44;2.10;;;1.30;;
3847;SDS011;1939;48.720;9.166;2023-02-03T01:59:10;4.70;;;1.10;;
3847;SDS011;1939;48.720;9.166;2023-02-03T02:01:35;2.10;;;1.40;;
3847;SDS011;1939;48.720;9.166;2023-02-03T02:04:01;1.33;;;0.70;;
3847;SDS011;1939;48.720;9.166;2023-02-03T02:06:27;2.90;;;1.30;;
3847;SDS011;1939;48.720;9.166;2023-02-03T02:08:53;4.23;;;0.90;;
3847;SDS011;1939;48.720;9.166;2023-02-03T02:11:19;1.97;;;1.17;;
3847;SDS011;1939;48.720;9.166;2023-02-03T02:13:48;2.43;;;1.40;;
3847;SDS011;1939;48.720;9.166;2023-02-03T02:16:15;1.87;;;1.40;;
3847;SDS011;1939;48.720;9.166;2023-02-03T02:31:37;3.40;;;2.10;;
3847;SDS011;1939;48.720;9.166;2023-02-03T02:34:02;3.97;;;1.63;;
3847;SDS011;1939;48.720;9.166;2023-02-03T02:36:34;6.03;;;1.40;;
3847;SDS011;1939;48.720;9.166;2023-02-03T02:39:08;1.73;;;1.43;;
3847;SDS011;1939;48.720;9.166;2023-02-03T02:41:42;2.03;;;1.50;;
3847;SDS011;1939;48.720;9.166;2023-02-03T02:44:10;2.00;;;1.33;;
3847;SDS011;1939;48.720;9.166;2023-02-03T02:46:56;1.70;;;1.37;;
3847;SDS011;1939;48.720;9.166;2023-02-03T02:49:32;2.63;;;1.60;;
3847;SDS011;1939;48.720;9.166;2023-02-03T02:51:59;5.70;;;1.20;;
3847;SDS011;1939;48.720;9.166;2023-02-03T02:54:26;1.33;;;1.23;;
3847;SDS011;1939;48.720;9.166;2023-02-03T02:56:52;1.97;;;1.23;;
3847;SDS011;1939;48.720;9.166;2023-02-03T02:59:18;3.13;;;1.67;;
3847;SDS011;1939;48.720;9.166;2023-02-03T03:01:44;2.70;;;1.63;;
3847;SDS011;1939;48.720;9.166;2023-02-03T03:04:09;4.23;;;1.63;;
3847;SDS011;1939;48.720;9.166;2023-02-03T03:06:45;2.20;;;1.33;;
3847;SDS011;1939;48.720;9.166;2023-02-03T03:09:14;2.33;;;1.63;;
3847;SDS011;1939;48.720;9.166;2023-02-03T03:11:43;5.83;;;1.47;;
3847;SDS011;1939;48.720;9.166;2023-02-03T03:14:09;2.10;;;1.80;;
3847;SDS011;1939;48.720;9.166;2023-02-03T03:16:36;3.17;;;1.70;;
3847;SDS011;1939;48.720;9.166;2023-02-03T03:19:16;4.77;;;1.37;;
3847;SDS011;1939;48.720;9.166;2023-02-03T03:21:44;2.37;;;1.60;;
3847;SDS011;1939;48.720;9.166;2023-02-03T03:24:13;4.23;;;1.23;;
3847;SDS011;1939;48.720;9.166;2023-02-03T03:26:50;2.40;;;1.67;;
3847;SDS011;1939;48.720;9.166;2023-02-03T03:29:18;3.43;;;1.17;;
3847;SDS011;1939;48.720;9.166;2023-02-03T03:31:45;1.30;;;1.20;;
3847;SDS011;1939;48.720;9.166;2023-02-03T03:34:11;3.10;;;1.40;;
3847;SDS011;1939;48.720;9.166;2023-02-03T03:36:39;1.67;;;1.10;;
3847;SDS011;1939;48.720;9.166;2023-02-03T03:39:11;2.20;;;1.10;;
3847;SDS011;1939;48.720;9.166;2023-02-03T03:41:43;2.63;;;1.20;;
3847;SDS011;1939;48.720;9.166;2023-02-03T03:44:13;4.73;;;1.33;;
3847;SDS011;1939;48.720;9.166;2023-02-03T03:46:44;3.70;;;1.30;;
3847;SDS011;1939;48.720;9.166;2023-02-03T03:49:10;1.80;;;1.70;;
3847;SDS011;1939;48.720;9.166;2023-02-03T03:51:43;1.53;;;1.10;;
3847;SDS011;1939;48.720;9.166;2023-02-03T03:54:11;1.63;;;1.30;;
3847;SDS011;1939;48.720;9.166;2023-02-03T03:56:57;1.60;;;1.50;;
3847;SDS011;1939;48.720;9.166;2023-02-03T03:59:24;1.40;;;1.23;;
3847;SDS011;1939;48.720;9.166;2023-02-03T04:01:50;1.67;;;1.57;;
3847;SDS011;1939;48.720;9.166;2023-02-03T04:06:52;1.73;;;0.90;;
3847;SDS011;1939;48.720;9.166;2023-02-03T04:09:18;1.60;;;1.10;;
3847;SDS011;1939;48.720;9.166;2023-02-03T04:11:44;5.60;;;1.00;;
3847;SDS011;1939;48.720;9.166;2023-02-03T04:14:28;1.60;;;1.00;;
3847;SDS011;1939;48.720;9.166;2023-02-03T04:16:54;2.67;;;0.80;;
3847;SDS011;1939;48.720;9.166;2023-02-03T04:19:20;1.80;;;0.63;;
3847;SDS011;1939;48.720;9.166;2023-02-03T04:21:45;2.60;;;1.00;;
3847;SDS011;1939;48.720;9.166;2023-02-03T04:24:10;0.80;;;0.60;;
3847;SDS011;1939;48.720;9.166;2023-02-03T04:26:36;1.67;;;0.83;;
3847;SDS011;1939;48.720;9.166;2023-02-03T04:29:01;1.60;;;0.77;;
3847;SDS011;1939;48.720;9.166;2023-02-03T04:31:33;0.87;;;0.73;;
3847;SDS011;1939;48.720;9.166;2023-02-03T04:34:00;0.80;;;0.80;;
3847;SDS011;1939;48.720;9.166;2023-02-03T04:36:25;0.93;;;0.70;;
3847;SDS011;1939;48.720;9.166;2023-02-03T04:38:51;2.30;;;1.10;;
3847;SDS011;1939;48.720;9.166;2023-02-03T04:41:16;2.03;;;1.50;;
3847;SDS011;1939;48.720;9.166;2023-02-03T04:46:17;3.20;;;1.00;;
3847;SDS011;1939;48.720;9.166;2023-02-03T04:48:44;6.00;;;3.57;;
3847;SDS011;1939;48.720;9.166;2023-02-03T04:51:12;1.30;;;1.20;;
3847;SDS011;1939;48.720;9.166;2023-02-03T04:53:56;1.80;;;1.40;;
3847;SDS011;1939;48.720;9.166;2023-02-03T04:56:21;1.53;;;1.20;;
3847;SDS011;1939;48.720;9.166;2023-02-03T04:58:46;1.70;;;0.90;;
3847;SDS011;1939;48.720;9.166;2023-02-03T05:01:12;3.23;;;1.47;;
3847;SDS011;1939;48.720;9.166;2023-02-03T05:03:37;4.73;;;1.30;;
3847;SDS011;1939;48.720;9.166;2023-02-03T05:06:02;1.63;;;1.20;;
3847;SDS011;1939;48.720;9.166;2023-02-03T05:08:28;1.67;;;1.30;;
3847;SDS011;1939;48.720;9.166;2023-02-03T05:10:54;2.57;;;1.00;;
3847;SDS011;1939;48.720;9.166;2023-02-03T05:13:19;1.57;;;1.10;;
3847;SDS011;1939;48.720;9.166;2023-02-03T05:15:45;5.13;;;1.63;;
3847;SDS011;1939;48.720;9.166;2023-02-03T05:18:10;4.70;;;1.93;;
3847;SDS011;1939;48.720;9.166;2023-02-03T05:20:40;10.83;;;1.40;;
3847;SDS011;1939;48.720;9.166;2023-02-03T05:23:07;1.70;;;1.23;;
3847;SDS011;1939;48.720;9.166;2023-02-03T05:25:44;2.67;;;1.27;;
3847;SDS011;1939;48.720;9.166;2023-02-03T05:28:10;1.47;;;1.10;;
3847;SDS011;1939;48.720;9.166;2023-02-03T05:30:35;2.37;;;1.40;;
3847;SDS011;1939;48.720;9.166;2023-02-03T05:33:00;3.93;;;1.10;;
3847;SDS011;1939;48.720;9.166;2023-02-03T05:35:25;4.70;;;1.03;;
3847;SDS011;1939;48.720;9.166;2023-02-03T05:37:50;3.73;;;1.40;;
3847;SDS011;1939;48.720;9.166;2023-02-03T05:40:16;1.63;;;1.00;;
3847;SDS011;1939;48.720;9.166;2023-02-03T05:43:00;3.03;;;0.90;;
3847;SDS011;1939;48.720;9.166;2023-02-03T05:45:25;2.90;;;1.30;;
3847;SDS011;1939;48.720;9.166;2023-02-03T05:47:50;2.87;;;1.00;;
3847;SDS011;1939;48.720;9.166;2023-02-03T05:50:15;2.93;;;1.47;;
3847;SDS011;1939;48.720;9.166;2023-02-03T05:52:41;1.83;;;1.30;;
3847;SDS011;1939;48.720;9.166;2023-02-03T05:55:06;1.67;;;1.27;;
3847;SDS011;1939;48.720;9.166;2023-02-03T05:57:31;2.57;;;1.27;;
3847;SDS011;1939;48.720;9.166;2023-02-03T05:59:57;6.67;;;1.27;;
3847;SDS011;1939;48.720;9.166;2023-02-03T06:02:22;2.30;;;1.27;;
3847;SDS011;1939;48.720;9.166;2023-02-03T06:04:47;2.67;;;0.77;;
3847;SDS011;1939;48.720;9.166;2023-02-03T06:07:12;2.87;;;1.10;;
3847;SDS011;1939;48.720;9.166;2023-02-03T06:09:37;5.23;;;0.90;;
3847;SDS011;1939;48.720;9.166;2023-02-03T06:12:03;1.03;;;0.67;;
3847;SDS011;1939;48.720;9.166;2023-02-03T06:14:28;1.10;;;0.80;;
3847;SDS011;1939;48.720;9.166;2023-02-03T06:16:53;1.50;;;0.90;;
3847;SDS011;1939;48.720;9.166;2023-02-03T06:19:18;2.23;;;1.17;;
3847;SDS011;1939;48.720;9.166;2023-02-03T06:21:44;2.20;;;0.77;;
3847;SDS011;1939;48.720;9.166;2023-02-03T06:24:09;2.30;;;0.97;;
3847;SDS011;1939;48.720;9.166;2023-02-03T06:26:35;1.80;;;1.10;;
3847;SDS011;1939;48.720;9.166;2023-02-03T06:29:00;1.07;;;0.80;;
3847;SDS011;1939;48.720;9.166;2023-02-03T06:31:25;5.33;;;1.10;;
3847;SDS011;1939;48.720;9.166;2023-02-03T06:33:50;1.80;;;0.90;;
3847;SDS011;1939;48.720;9.166;2023-02-03T06:36:15;3.40;;;1.60;;
3847;SDS011;1939;48.720;9.166;2023-02-03T06:38:42;1.60;;;0.90;;
3847;SDS011;1939;48.720;9.166;2023-02-03T06:41:07;4.03;;;1.07;;
3847;SDS011;1939;48.720;9.166;2023-02-03T06:43:38;3.50;;;1.07;;
3847;SDS011;1939;48.720;9.166;2023-02-03T06:46:03;2.20;;;1.27;;
3847;SDS011;1939;48.720;9.166;2023-02-03T06:48:29;1.60;;;1.23;;
3847;SDS011;1939;48.720;9.166;2023-02-03T06:50:54;2.07;;;1.20;;
3847;SDS011;1939;48.720;9.166;2023-02-03T06:53:20;1.53;;;1.00;;
3847;SDS011;1939;48.720;9.166;2023-02-03T06:55:45;2.43;;;1.43;;
3847;SDS011;1939;48.720;9.166;2023-02-03T06:58:11;1.30;;;1.10;;
3847;SDS011;1939;48.720;9.166;2023-02-03T07:00:37;1.47;;;1.37;;
3847;SDS011;1939;48.720;9.166;2023-02-03T07:03:02;1.80;;;1.30;;
3847;SDS011;1939;48.720;9.166;2023-02-03T07:05:28;1.00;;;0.90;;
3847;SDS011;1939;48.720;9.166;2023-02-03T07:07:53;2.93;;;0.90;;
3847;SDS011;1939;48.720;9.166;2023-02-03T07:10:19;2.53;;;1.50;;
3847;SDS011;1939;48.720;9.166;2023-02-03T07:12:44;2.90;;;1.00;;
3847;SDS011;1939;48.720;9.166;2023-02-03T07:15:10;2.77;;;1.43;;
3847;SDS011;1939;48.720;9.166;2023-02-03T07:17:35;5.97;;;0.97;;
3847;SDS011;1939;48.720;9.166;2023-02-03T07:20:01;4.33;;;1.33;;
3847;SDS011;1939;48.720;9.166;2023-02-03T07:22:26;3.53;;;1.17;;
3847;SDS011;1939;48.720;9.166;2023-02-03T07:24:51;4.43;;;1.63;;
3847;SDS011;1939;48.720;9.166;2023-02-03T07:27:17;1.60;;;0.97;;
3847;SDS011;1939;48.720;9.166;2023-02-03T07:29:43;2.70;;;1.60;;
3847;SDS011;1939;48.720;9.166;2023-02-03T07:32:08;2.07;;;1.33;;
3847;SDS011;1939;48.720;9.166;2023-02-03T07:34:33;1.10;;;1.00;;
3847;SDS011;1939;48.720;9.166;2023-02-03T07:36:59;4.90;;;1.70;;
3847;SDS011;1939;48.720;9.166;2023-02-03T07:39:24;4.03;;;1.90;;
3847;SDS011;1939;48.720;9.166;2023-02-03T07:41:50;5.40;;;1.50;;
3847;SDS011;1939;48.720;9.166;2023-02-03T07:44:15;6.20;;;1.70;;
3847;SDS011;1939;48.720;9.166;2023-02-03T07:46:40;5.73;;;2.90;;
3847;SDS011;1939;48.720;9.166;2023-02-03T07:49:11;5.50;;;2.20;;
3847;SDS011;1939;48.720;9.166;2023-02-03T07:51:37;2.20;;;1.70;;
3847;SDS011;1939;48.720;9.166;2023-02-03T07:54:02;3.47;;;2.20;;
3847;SDS011;1939;48.720;9.166;2023-02-03T07:56:27;5.97;;;2.33;;
3847;SDS011;1939;48.720;9.166;2023-02-03T07:58:54;3.40;;;1.80;;
3847;SDS011;1939;48.720;9.166;2023-02-03T08:01:20;6.80;;;1.90;;
3847;SDS011;1939;48.720;9.166;2023-02-03T08:03:45;7.93;;;2.67;;
3847;SDS011;1939;48.720;9.166;2023-02-03T08:06:10;5.87;;;2.30;;
3847;SDS011;1939;48.720;9.166;2023-02-03T08:08:35;5.17;;;1.80;;
3847;SDS011;1939;48.720;9.166;2023-02-03T08:11:01;2.87;;;1.90;;
3847;SDS011;1939;48.720;9.166;2023-02-03T08:13:26;2.97;;;1.73;;
3847;SDS011;1939;48.720;9.166;2023-02-03T08:15:51;3.13;;;2.33;;
3847;SDS011;1939;48.720;9.166;2023-02-03T08:18:17;4.03;;;2.10;;
3847;SDS011;1939;48.720;9.166;2023-02-03T08:20:42;20.97;;;2.67;;
3847;SDS011;1939;48.720;9.166;2023-02-03T08:23:07;6.17;;;2.60;;
3847;SDS011;1939;48.720;9.166;2023-02-03T08:25:33;5.50;;;2.17;;
3847;SDS011;1939;48.720;9.166;2023-02-03T08:27:59;5.87;;;2.87;;
3847;SDS011;1939;48.720;9.166;2023-02-03T08:30:24;4.13;;;2.27;;
3847;SDS011;1939;48.720;9.166;2023-02-03T08:32:50;4.90;;;2.47;;
3847;SDS011;1939;48.720;9.166;2023-02-03T08:35:15;8.73;;;3.30;;
3847;SDS011;1939;48.720;9.166;2023-02-03T08:37:40;10.13;;;2.93;;
3847;SDS011;1939;48.720;9.166;2023-02-03T08:40:06;14.03;;;2.70;;
3847;SDS011;1939;48.720;9.166;2023-02-03T08:42:31;4.20;;;2.43;;
3847;SDS011;1939;48.720;9.166;2023-02-03T08:44:57;7.27;;;2.50;;
3847;SDS011;1939;48.720;9.166;2023-02-03T08:47:22;11.63;;;4.07;;
3847;SDS011;1939;48.720;9.166;2023-02-03T08:49:47;3.43;;;2.40;;
3847;SDS011;1939;48.720;9.166;2023-02-03T08:52:13;6.80;;;2.83;;
3847;SDS011;1939;48.720;9.166;2023-02-03T08:54:38;3.67;;;2.07;;
3847;SDS011;1939;48.720;9.166;2023-02-03T08:57:03;8.83;;;3.13;;
3847;SDS011;1939;48.720;9.166;2023-02-03T08:59:29;4.20;;;2.30;;
3847;SDS011;1939;48.720;9.166;2023-02-03T09:01:55;9.00;;;2.70;;
3847;SDS011;1939;48.720;9.166;2023-02-03T09:04:21;4.87;;;2.40;;
3847;SDS011;1939;48.720;9.166;2023-02-03T09:06:52;3.50;;;2.30;;
3847;SDS011;1939;48.720;9.166;2023-02-03T09:09:21;3.50;;;1.70;;
3847;SDS011;1939;48.720;9.166;2023-02-03T09:11:46;7.90;;;2.50;;
3847;SDS011;1939;48.720;9.166;2023-02-03T09:14:11;3.57;;;2.30;;
3847;SDS011;1939;48.720;9.166;2023-02-03T09:16:37;3.80;;;2.07;;
3847;SDS011;1939;48.720;9.166;2023-02-03T09:19:02;8.70;;;2.30;;
3847;SDS011;1939;48.720;9.166;2023-02-03T09:21:27;3.47;;;2.13;;
3847;SDS011;1939;48.720;9.166;2023-02-03T09:23:52;3.33;;;2.23;;
3847;SDS011;1939;48.720;9.166;2023-02-03T09:26:18;4.67;;;2.57;;
3847;SDS011;1939;48.720;9.166;2023-02-03T09:28:43;4.10;;;1.93;;
3847;SDS011;1939;48.720;9.166;2023-02-03T09:31:09;4.07;;;2.13;;
3847;SDS011;1939;48.720;9.166;2023-02-03T09:33:35;5.53;;;2.40;;
3847;SDS011;1939;48.720;9.166;2023-02-03T09:36:00;4.43;;;2.40;;
3847;SDS011;1939;48.720;9.166;2023-02-03T09:38:26;5.80;;;2.07;;
3847;SDS011;1939;48.720;9.166;2023-02-03T09:40:52;3.70;;;2.50;;
3847;SDS011;1939;48.720;9.166;2023-02-03T09:43:26;6.90;;;3.20;;
3847;SDS011;1939;48.720;9.166;2023-02-03T09:45:53;4.00;;;2.43;;
3847;SDS011;1939;48.720;9.166;2023-02-03T09:48:22;11.20;;;2.83;;
3847;SDS011;1939;48.720;9.166;2023-02-03T09:50:48;5.90;;;3.13;;
3847;SDS011;1939;48.720;9.166;2023-02-03T09:53:27;3.80;;;2.43;;
3847;SDS011;1939;48.720;9.166;2023-02-03T09:55:55;4.00;;;2.30;;
3847;SDS011;1939;48.720;9.166;2023-02-03T09:58:21;3.43;;;1.77;;
3847;SDS011;1939;48.720;9.166;2023-02-03T10:00:55;3.10;;;2.07;;
3847;SDS011;1939;48.720;9.166;2023-02-03T10:11:55;2.93;;;1.40;;
3847;SDS011;1939;48.720;9.166;2023-02-03T10:14:38;3.37;;;1.13;;
3847;SDS011;1939;48.720;9.166;2023-02-03T10:20:04;2.03;;;1.40;;
3847;SDS011;1939;48.720;9.166;2023-02-03T10:22:31;1.47;;;1.17;;
3847;SDS011;1939;48.720;9.166;2023-02-03T10:27:25;2.80;;;1.30;;
3847;SDS011;1939;48.720;9.166;2023-02-03T10:32:22;1.83;;;1.00;;
3847;SDS011;1939;48.720;9.166;2023-02-03T10:34:48;1.33;;;1.13;;
3847;SDS011;1939;48.720;9.166;2023-02-03T10:37:21;1.70;;;0.73;;
3847;SDS011;1939;48.720;9.166;2023-02-03T10:39:48;1.53;;;1.30;;
3847;SDS011;1939;48.720;9.166;2023-02-03T10:42:14;1.97;;;1.40;;
3847;SDS011;1939;48.720;9.166;2023-02-03T10:44:41;2.60;;;0.87;;
3847;SDS011;1939;48.720;9.166;2023-02-03T10:49:41;1.50;;;0.97;;
3847;SDS011;1939;48.720;9.166;2023-02-03T10:52:07;0.87;;;0.77;;
3847;SDS011;1939;48.720;9.166;2023-02-03T10:54:47;1.17;;;0.73;;
3847;SDS011;1939;48.720;9.166;2023-02-03T10:57:13;1.20;;;0.60;;
3847;SDS011;1939;48.720;9.166;2023-02-03T10:59:40;6.30;;;1.10;;
3847;SDS011;1939;48.720;9.166;2023-02-03T11:02:06;1.63;;;0.67;;
3847;SDS011;1939;48.720;9.166;2023-02-03T11:04:32;1.13;;;1.00;;
3847;SDS011;1939;48.720;9.166;2023-02-03T11:09:35;1.90;;;0.90;;
3847;SDS011;1939;48.720;9.166;2023-02-03T11:12:19;1.33;;;0.70;;
3847;SDS011;1939;48.720;9.166;2023-02-03T11:14:45;0.97;;;0.70;;
3847;SDS011;1939;48.720;9.166;2023-02-03T11:17:26;2.40;;;1.00;;
3847;SDS011;1939;48.720;9.166;2023-02-03T11:20:03;1.83;;;0.90;;
3847;SDS011;1939;48.720;9.166;2023-02-03T11:22:36;1.27;;;0.67;;
3847;SDS011;1939;48.720;9.166;2023-02-03T11:25:03;2.40;;;0.60;;
3847;SDS011;1939;48.720;9.166;2023-02-03T11:27:30;1.13;;;0.77;;
3847;SDS011;1939;48.720;9.166;2023-02-03T11:30:15;1.07;;;0.53;;
3847;SDS011;1939;48.720;9.166;2023-02-03T11:32:42;1.00;;;0.60;;
3847;SDS011;1939;48.720;9.166;2023-02-03T11:37:48;0.57;;;0.20;;
3847;SDS011;1939;48.720;9.166;2023-02-03T11:42:40;0.83;;;0.70;;
3847;SDS011;1939;48.720;9.166;2023-02-03T11:45:23;0.90;;;0.60;;
3847;SDS011;1939;48.720;9.166;2023-02-03T11:47:54;2.10;;;0.80;;
3847;SDS011;1939;48.720;9.166;2023-02-03T11:52:55;0.60;;;0.40;;
3847;SDS011;1939;48.720;9.166;2023-02-03T12:00:36;1.00;;;0.67;;
3847;SDS011;1939;48.720;9.166;2023-02-03T12:08:25;0.60;;;0.33;;
3847;SDS011;1939;48.720;9.166;2023-02-03T12:15:54;1.77;;;1.00;;
3847;SDS011;1939;48.720;9.166;2023-02-03T12:26:04;3.93;;;0.80;;
3847;SDS011;1939;48.720;9.166;2023-02-03T12:33:51;1.33;;;0.70;;
3847;SDS011;1939;48.720;9.166;2023-02-03T12:36:21;1.20;;;0.50;;
3847;SDS011;1939;48.720;9.166;2023-02-03T12:38:52;0.90;;;0.40;;
3847;SDS011;1939;48.720;9.166;2023-02-03T12:41:24;0.70;;;0.40;;
3847;SDS011;1939;48.720;9.166;2023-02-03T12:43:51;0.50;;;0.30;;
3847;SDS011;1939;48.720;9.166;2023-02-03T12:46:21;1.03;;;0.50;;
3847;SDS011;1939;48.720;9.166;2023-02-03T12:51:37;1.63;;;0.50;;
3847;SDS011;1939;48.720;9.166;2023-02-03T12:56:47;0.60;;;0.30;;
3847;SDS011;1939;48.720;9.166;2023-02-03T12:59:21;0.70;;;0.63;;
3847;SDS011;1939;48.720;9.166;2023-02-03T13:01:57;0.90;;;0.60;;
3847;SDS011;1939;48.720;9.166;2023-02-03T13:04:34;0.60;;;0.40;;
3847;SDS011;1939;48.720;9.166;2023-02-03T13:09:48;0.80;;;0.40;;
3847;SDS011;1939;48.720;9.166;2023-02-03T13:14:53;0.80;;;0.40;;
3847;SDS011;1939;48.720;9.166;2023-02-03T13:17:23;0.70;;;0.50;;
3847;SDS011;1939;48.720;9.166;2023-02-03T13:20:10;0.80;;;0.43;;
3847;SDS011;1939;48.720;9.166;2023-02-03T13:22:37;0.50;;;0.30;;
3847;SDS011;1939;48.720;9.166;2023-02-03T13:30:20;1.03;;;0.40;;
3847;SDS011;1939;48.720;9.166;2023-02-03T13:37:53;0.80;;;0.40;;
3847;SDS011;1939;48.720;9.166;2023-02-03T13:42:55;0.90;;;0.60;;
3847;SDS011;1939;48.720;9.166;2023-02-03T13:45:32;0.90;;;0.90;;
3847;SDS011;1939;48.720;9.166;2023-02-03T13:48:08;0.70;;;0.70;;
3847;SDS011;1939;48.720;9.166;2023-02-03T13:50:35;3.07;;;0.63;;
3847;SDS011;1939;48.720;9.166;2023-02-03T13:53:01;1.10;;;0.60;;
3847;SDS011;1939;48.720;9.166;2023-02-03T13:55:28;0.70;;;0.50;;
3847;SDS011;1939;48.720;9.166;2023-02-03T13:57:54;0.90;;;0.50;;
3847;SDS011;1939;48.720;9.166;2023-02-03T14:03:04;0.80;;;0.50;;
3847;SDS011;1939;48.720;9.166;2023-02-03T14:05:40;0.80;;;0.50;;
3847;SDS011;1939;48.720;9.166;2023-02-03T14:13:34;0.90;;;0.50;;
3847;SDS011;1939;48.720;9.166;2023-02-03T14:16:12;0.70;;;0.50;;
3847;SDS011;1939;48.720;9.166;2023-02-03T14:18:44;0.67;;;0.40;;
3847;SDS011;1939;48.720;9.166;2023-02-03T14:21:20;1.07;;;0.77;;
3847;SDS011;1939;48.720;9.166;2023-02-03T14:23:47;1.13;;;0.70;;
3847;SDS011;1939;48.720;9.166;2023-02-03T14:26:15;0.70;;;0.37;;
3847;SDS011;1939;48.720;9.166;2023-02-03T14:28:42;1.20;;;0.60;;
3847;SDS011;1939;48.720;9.166;2023-02-03T14:31:09;3.03;;;0.90;;
3847;SDS011;1939;48.720;9.166;2023-02-03T14:41:47;1.90;;;0.40;;
3847;SDS011;1939;48.720;9.166;2023-02-03T14:44:19;1.27;;;0.53;;
3847;SDS011;1939;48.720;9.166;2023-02-03T14:47:03;1.73;;;0.73;;
3847;SDS011;1939;48.720;9.166;2023-02-03T14:49:45;0.70;;;0.40;;
3847;SDS011;1939;48.720;9.166;2023-02-03T15:02:22;2.73;;;0.57;;
3847;SDS011;1939;48.720;9.166;2023-02-03T15:04:49;1.40;;;0.47;;
3847;SDS011;1939;48.720;9.166;2023-02-03T15:09:58;0.70;;;0.60;;
3847;SDS011;1939;48.720;9.166;2023-02-03T15:12:24;1.53;;;0.60;;
3847;SDS011;1939;48.720;9.166;2023-02-03T15:14:50;0.90;;;0.50;;
3847;SDS011;1939;48.720;9.166;2023-02-03T15:17:22;0.93;;;0.50;;
3847;SDS011;1939;48.720;9.166;2023-02-03T15:19:48;1.40;;;0.40;;
3847;SDS011;1939;48.720;9.166;2023-02-03T15:24:45;1.30;;;0.80;;
3847;SDS011;1939;48.720;9.166;2023-02-03T15:27:24;0.50;;;0.40;;
3847;SDS011;1939;48.720;9.166;2023-02-03T15:29:49;3.77;;;0.40;;
3847;SDS011;1939;48.720;9.166;2023-02-03T15:32:17;0.60;;;0.53;;
3847;SDS011;1939;48.720;9.166;2023-02-03T15:34:46;0.63;;;0.40;;
3847;SDS011;1939;48.720;9.166;2023-02-03T15:38:14;0.70;;;0.43;;
3847;SDS011;1939;48.720;9.166;2023-02-03T15:40:11;1.93;;;0.60;;
3847;SDS011;1939;48.720;9.166;2023-02-03T15:45:19;1.73;;;0.50;;
3847;SDS011;1939;48.720;9.166;2023-02-03T15:47:55;0.83;;;0.60;;
3847;SDS011;1939;48.720;9.166;2023-02-03T15:52:54;0.80;;;0.63;;
3847;SDS011;1939;48.720;9.166;2023-02-03T15:55:25;1.23;;;0.50;;
3847;SDS011;1939;48.720;9.166;2023-02-03T15:57:52;0.83;;;0.67;;
3847;SDS011;1939;48.720;9.166;2023-02-03T16:02:51;1.00;;;0.70;;
3847;SDS011;1939;48.720;9.166;2023-02-03T16:07:51;0.90;;;0.40;;
3847;SDS011;1939;48.720;9.166;2023-02-03T16:10:32;1.10;;;0.63;;
3847;SDS011;1939;48.720;9.166;2023-02-03T16:15:42;2.60;;;1.10;;
3847;SDS011;1939;48.720;9.166;2023-02-03T16:18:15;3.83;;;0.53;;
3847;SDS011;1939;48.720;9.166;2023-02-03T16:20:47;1.00;;;0.80;;
3847;SDS011;1939;48.720;9.166;2023-02-03T16:23:16;0.80;;;0.47;;
3847;SDS011;1939;48.720;9.166;2023-02-03T16:25:43;2.37;;;0.70;;
3847;SDS011;1939;48.720;9.166;2023-02-03T16:28:24;1.43;;;0.67;;
3847;SDS011;1939;48.720;9.166;2023-02-03T16:31:12;1.87;;;0.63;;
3847;SDS011;1939;48.720;9.166;2023-02-03T16:33:59;0.87;;;0.60;;
3847;SDS011;1939;48.720;9.166;2023-02-03T16:36:43;1.03;;;0.67;;
3847;SDS011;1939;48.720;9.166;2023-02-03T16:39:27;1.10;;;0.50;;
3847;SDS011;1939;48.720;9.166;2023-02-03T16:42:14;1.07;;;0.87;;
3847;SDS011;1939;48.720;9.166;2023-02-03T16:44:58;1.10;;;0.67;;
3847;SDS011;1939;48.720;9.166;2023-02-03T16:47:43;1.10;;;0.67;;
3847;SDS011;1939;48.720;9.166;2023-02-03T16:50:27;1.07;;;0.70;;
3847;SDS011;1939;48.720;9.166;2023-02-03T16:53:12;1.90;;;0.60;;
3847;SDS011;1939;48.720;9.166;2023-02-03T16:55:38;0.70;;;0.60;;
3847;SDS011;1939;48.720;9.166;2023-02-03T16:58:04;0.90;;;0.67;;
3847;SDS011;1939;48.720;9.166;2023-02-03T17:00:29;0.70;;;0.70;;
3847;SDS011;1939;48.720;9.166;2023-02-03T17:02:54;1.00;;;0.60;;
3847;SDS011;1939;48.720;9.166;2023-02-03T17:05:19;0.80;;;0.80;;
3847;SDS011;1939;48.720;9.166;2023-02-03T17:07:45;0.83;;;0.60;;
3847;SDS011;1939;48.720;9.166;2023-02-03T17:10:10;4.43;;;0.90;;
3847;SDS011;1939;48.720;9.166;2023-02-03T17:12:36;0.60;;;0.40;;
3847;SDS011;1939;48.720;9.166;2023-02-03T17:15:02;0.53;;;0.40;;
3847;SDS011;1939;48.720;9.166;2023-02-03T17:17:28;1.07;;;0.90;;
3847;SDS011;1939;48.720;9.166;2023-02-03T17:19:53;0.73;;;0.60;;
3847;SDS011;1939;48.720;9.166;2023-02-03T17:22:18;1.20;;;0.70;;
3847;SDS011;1939;48.720;9.166;2023-02-03T17:24:43;1.47;;;1.13;;
3847;SDS011;1939;48.720;9.166;2023-02-03T17:27:09;1.20;;;0.73;;
3847;SDS011;1939;48.720;9.166;2023-02-03T17:29:34;0.60;;;0.47;;
3847;SDS011;1939;48.720;9.166;2023-02-03T17:32:00;1.10;;;0.80;;
3847;SDS011;1939;48.720;9.166;2023-02-03T17:34:25;3.47;;;0.77;;
3847;SDS011;1939;48.720;9.166;2023-02-03T17:36:50;4.00;;;2.43;;
3847;SDS011;1939;48.720;9.166;2023-02-03T17:39:18;3.40;;;0.83;;
3847;SDS011;1939;48.720;9.166;2023-02-03T17:41:43;1.20;;;0.70;;
3847;SDS011;1939;48.720;9.166;2023-02-03T17:44:08;1.07;;;0.83;;
3847;SDS011;1939;48.720;9.166;2023-02-03T17:46:34;1.90;;;1.37;;